sensor_id;sensor_type;location;lat;lon;timestamp;P1;durP1;ratioP1;P2;durP2;ratioP2
33760;SDS011;20084;47.912;19.044;2022-11-20T00:00:03;23.83;;;16.17;;
33760;SDS011;20084;47.912;19.044;2022-11-20T00:02:29;25.50;;;17.38;;
33760;SDS011;20084;47.912;19.044;2022-11-20T00:04:54;31.02;;;19.70;;
33760;SDS011;20084;47.912;19.044;2022-11-20T00:07:20;29.63;;;18.88;;
33760;SDS011;20084;47.912;19.044;2022-11-20T00:09:45;27.80;;;18.52;;
33760;SDS011;20084;47.912;19.044;2022-11-20T00:12:11;28.00;;;16.85;;
33760;SDS011;20084;47.912;19.044;2022-11-20T00:14:37;25.25;;;17.40;;
33760;SDS011;20084;47.912;19.044;2022-11-20T00:17:02;25.70;;;16.52;;
33760;SDS011;20084;47.912;19.044;2022-11-20T00:19:28;29.60;;;17.85;;
33760;SDS011;20084;47.912;19.044;2022-11-20T00:21:53;26.52;;;17.92;;
33760;SDS011;20084;47.912;19.044;2022-11-20T00:24:20;27.85;;;17.65;;
33760;SDS011;20084;47.912;19.044;2022-11-20T00:26:45;25.65;;;17.27;;
33760;SDS011;20084;47.912;19.044;2022-11-20T00:29:11;23.55;;;16.08;;
33760;SDS011;20084;47.912;19.044;2022-11-20T00:31:37;24.58;;;17.00;;
33760;SDS011;20084;47.912;19.044;2022-11-20T00:34:02;25.80;;;16.50;;
33760;SDS011;20084;47.912;19.044;2022-11-20T00:36:28;26.70;;;16.83;;
33760;SDS011;20084;47.912;19.044;2022-11-20T00:38:57;25.38;;;17.00;;
33760;SDS011;20084;47.912;19.044;2022-11-20T00:41:24;24.70;;;15.35;;
33760;SDS011;20084;47.912;19.044;2022-11-20T00:43:51;25.27;;;16.35;;
33760;SDS011;20084;47.912;19.044;2022-11-20T00:46:19;26.40;;;16.75;;
33760;SDS011;20084;47.912;19.044;2022-11-20T00:48:46;29.23;;;15.77;;
33760;SDS011;20084;47.912;19.044;2022-11-20T00:51:16;25.45;;;17.35;;
33760;SDS011;20084;47.912;19.044;2022-11-20T00:53:43;35.40;;;17.10;;
33760;SDS011;20084;47.912;19.044;2022-11-20T00:56:10;29.15;;;17.02;;
33760;SDS011;20084;47.912;19.044;2022-11-20T00:58:38;27.98;;;17.05;;
33760;SDS011;20084;47.912;19.044;2022-11-20T01:01:06;29.65;;;18.35;;
33760;SDS011;20084;47.912;19.044;2022-11-20T01:03:33;25.63;;;17.30;;
33760;SDS011;20084;47.912;19.044;2022-11-20T01:06:00;25.15;;;16.55;;
33760;SDS011;20084;47.912;19.044;2022-11-20T01:08:35;29.77;;;18.02;;
33760;SDS011;20084;47.912;19.044;2022-11-20T01:11:05;25.90;;;17.88;;
33760;SDS011;20084;47.912;19.044;2022-11-20T01:13:35;28.08;;;16.60;;
33760;SDS011;20084;47.912;19.044;2022-11-20T01:16:12;26.75;;;16.60;;
33760;SDS011;20084;47.912;19.044;2022-11-20T01:18:41;29.55;;;17.25;;
33760;SDS011;20084;47.912;19.044;2022-11-20T01:21:09;30.70;;;18.88;;
33760;SDS011;20084;47.912;19.044;2022-11-20T01:23:37;28.58;;;17.33;;
33760;SDS011;20084;47.912;19.044;2022-11-20T01:26:04;29.17;;;17.23;;
33760;SDS011;20084;47.912;19.044;2022-11-20T01:28:35;26.50;;;17.25;;
33760;SDS011;20084;47.912;19.044;2022-11-20T01:31:09;29.40;;;17.15;;
33760;SDS011;20084;47.912;19.044;2022-11-20T01:33:37;26.33;;;17.33;;
33760;SDS011;20084;47.912;19.044;2022-11-20T01:36:03;30.88;;;17.27;;
33760;SDS011;20084;47.912;19.044;2022-11-20T01:38:30;25.48;;;17.13;;
33760;SDS011;20084;47.912;19.044;2022-11-20T01:40:56;29.65;;;17.70;;
33760;SDS011;20084;47.912;19.044;2022-11-20T01:43:22;25.38;;;16.48;;
33760;SDS011;20084;47.912;19.044;2022-11-20T01:48:30;30.13;;;17.00;;
33760;SDS011;20084;47.912;19.044;2022-11-20T01:51:06;30.48;;;17.40;;
33760;SDS011;20084;47.912;19.044;2022-11-20T01:53:37;28.17;;;17.45;;
33760;SDS011;20084;47.912;19.044;2022-11-20T01:56:05;26.92;;;17.02;;
33760;SDS011;20084;47.912;19.044;2022-11-20T01:58:33;25.90;;;16.58;;
33760;SDS011;20084;47.912;19.044;2022-11-20T02:01:03;25.80;;;16.13;;
33760;SDS011;20084;47.912;19.044;2022-11-20T02:03:29;23.38;;;16.42;;
33760;SDS011;20084;47.912;19.044;2022-11-20T02:05:57;27.27;;;16.85;;
33760;SDS011;20084;47.912;19.044;2022-11-20T02:08:32;25.25;;;15.57;;
33760;SDS011;20084;47.912;19.044;2022-11-20T02:11:00;27.55;;;16.77;;
33760;SDS011;20084;47.912;19.044;2022-11-20T02:13:25;23.92;;;15.55;;
33760;SDS011;20084;47.912;19.044;2022-11-20T02:16:20;24.30;;;15.70;;
33760;SDS011;20084;47.912;19.044;2022-11-20T02:18:49;24.30;;;15.85;;
33760;SDS011;20084;47.912;19.044;2022-11-20T02:24:00;24.48;;;15.77;;
33760;SDS011;20084;47.912;19.044;2022-11-20T02:29:31;22.90;;;15.45;;
33760;SDS011;20084;47.912;19.044;2022-11-20T02:32:16;24.10;;;15.93;;
33760;SDS011;20084;47.912;19.044;2022-11-20T02:34:44;27.25;;;15.93;;
33760;SDS011;20084;47.912;19.044;2022-11-20T02:37:09;23.17;;;15.25;;
33760;SDS011;20084;47.912;19.044;2022-11-20T02:39:35;24.88;;;15.98;;
33760;SDS011;20084;47.912;19.044;2022-11-20T02:42:01;21.83;;;15.02;;
33760;SDS011;20084;47.912;19.044;2022-11-20T02:44:27;24.38;;;15.10;;
33760;SDS011;20084;47.912;19.044;2022-11-20T02:46:52;22.88;;;14.55;;
33760;SDS011;20084;47.912;19.044;2022-11-20T02:49:18;23.35;;;14.98;;
33760;SDS011;20084;47.912;19.044;2022-11-20T02:51:43;21.08;;;14.43;;
33760;SDS011;20084;47.912;19.044;2022-11-20T02:54:09;21.20;;;14.75;;
33760;SDS011;20084;47.912;19.044;2022-11-20T02:56:37;21.55;;;14.82;;
33760;SDS011;20084;47.912;19.044;2022-11-20T02:59:03;21.98;;;14.43;;
33760;SDS011;20084;47.912;19.044;2022-11-20T03:01:29;21.48;;;14.13;;
33760;SDS011;20084;47.912;19.044;2022-11-20T03:03:55;22.02;;;15.02;;
33760;SDS011;20084;47.912;19.044;2022-11-20T03:06:21;22.08;;;15.07;;
33760;SDS011;20084;47.912;19.044;2022-11-20T03:08:47;22.83;;;14.80;;
33760;SDS011;20084;47.912;19.044;2022-11-20T03:11:13;21.45;;;14.38;;
33760;SDS011;20084;47.912;19.044;2022-11-20T03:13:38;22.88;;;14.88;;
33760;SDS011;20084;47.912;19.044;2022-11-20T03:16:08;20.95;;;14.55;;
33760;SDS011;20084;47.912;19.044;2022-11-20T03:18:36;19.55;;;13.40;;
33760;SDS011;20084;47.912;19.044;2022-11-20T03:21:02;20.30;;;13.20;;
33760;SDS011;20084;47.912;19.044;2022-11-20T03:23:29;22.83;;;14.80;;
33760;SDS011;20084;47.912;19.044;2022-11-20T03:25:56;20.52;;;13.82;;
33760;SDS011;20084;47.912;19.044;2022-11-20T03:28:31;23.25;;;14.70;;
33760;SDS011;20084;47.912;19.044;2022-11-20T03:30:57;23.25;;;14.98;;
33760;SDS011;20084;47.912;19.044;2022-11-20T03:33:22;20.98;;;14.45;;
33760;SDS011;20084;47.912;19.044;2022-11-20T03:35:48;21.75;;;14.60;;
33760;SDS011;20084;47.912;19.044;2022-11-20T03:38:13;19.83;;;13.95;;
33760;SDS011;20084;47.912;19.044;2022-11-20T03:40:39;19.23;;;13.45;;
33760;SDS011;20084;47.912;19.044;2022-11-20T03:43:05;23.23;;;14.43;;
33760;SDS011;20084;47.912;19.044;2022-11-20T03:45:30;22.33;;;14.75;;
33760;SDS011;20084;47.912;19.044;2022-11-20T03:47:56;20.00;;;13.43;;
33760;SDS011;20084;47.912;19.044;2022-11-20T03:50:21;20.92;;;13.77;;
33760;SDS011;20084;47.912;19.044;2022-11-20T03:52:47;21.02;;;14.15;;
33760;SDS011;20084;47.912;19.044;2022-11-20T03:55:12;20.67;;;14.18;;
33760;SDS011;20084;47.912;19.044;2022-11-20T03:57:38;20.58;;;13.73;;
33760;SDS011;20084;47.912;19.044;2022-11-20T04:00:04;19.83;;;14.02;;
33760;SDS011;20084;47.912;19.044;2022-11-20T04:02:30;20.30;;;13.05;;
33760;SDS011;20084;47.912;19.044;2022-11-20T04:04:56;20.02;;;13.85;;
33760;SDS011;20084;47.912;19.044;2022-11-20T04:07:21;20.13;;;13.13;;
33760;SDS011;20084;47.912;19.044;2022-11-20T04:09:47;21.63;;;13.68;;
33760;SDS011;20084;47.912;19.044;2022-11-20T04:12:13;18.38;;;12.65;;
33760;SDS011;20084;47.912;19.044;2022-11-20T04:14:38;21.17;;;13.02;;
33760;SDS011;20084;47.912;19.044;2022-11-20T04:17:04;19.90;;;12.63;;
33760;SDS011;20084;47.912;19.044;2022-11-20T04:19:29;19.00;;;12.98;;
33760;SDS011;20084;47.912;19.044;2022-11-20T04:21:55;18.95;;;12.60;;
33760;SDS011;20084;47.912;19.044;2022-11-20T04:24:21;20.20;;;12.98;;
33760;SDS011;20084;47.912;19.044;2022-11-20T04:26:46;17.80;;;12.35;;
33760;SDS011;20084;47.912;19.044;2022-11-20T04:29:12;18.42;;;12.23;;
33760;SDS011;20084;47.912;19.044;2022-11-20T04:31:37;18.00;;;12.13;;
33760;SDS011;20084;47.912;19.044;2022-11-20T04:34:04;18.70;;;13.02;;
33760;SDS011;20084;47.912;19.044;2022-11-20T04:36:31;17.67;;;11.93;;
33760;SDS011;20084;47.912;19.044;2022-11-20T04:38:58;18.00;;;12.23;;
33760;SDS011;20084;47.912;19.044;2022-11-20T04:41:29;19.40;;;12.30;;
33760;SDS011;20084;47.912;19.044;2022-11-20T04:43:59;19.15;;;12.43;;
33760;SDS011;20084;47.912;19.044;2022-11-20T04:46:28;18.17;;;11.88;;
33760;SDS011;20084;47.912;19.044;2022-11-20T04:48:55;20.15;;;12.27;;
33760;SDS011;20084;47.912;19.044;2022-11-20T04:51:21;17.00;;;11.75;;
33760;SDS011;20084;47.912;19.044;2022-11-20T04:53:46;20.60;;;12.18;;
33760;SDS011;20084;47.912;19.044;2022-11-20T04:56:12;17.75;;;11.88;;
33760;SDS011;20084;47.912;19.044;2022-11-20T04:58:39;18.70;;;13.32;;
33760;SDS011;20084;47.912;19.044;2022-11-20T05:01:26;18.35;;;12.68;;
33760;SDS011;20084;47.912;19.044;2022-11-20T05:03:50;20.85;;;13.13;;
33760;SDS011;20084;47.912;19.044;2022-11-20T05:06:17;20.02;;;12.43;;
33760;SDS011;20084;47.912;19.044;2022-11-20T05:08:44;16.48;;;11.18;;
33760;SDS011;20084;47.912;19.044;2022-11-20T05:11:14;18.33;;;12.32;;
33760;SDS011;20084;47.912;19.044;2022-11-20T05:13:42;17.77;;;11.85;;
33760;SDS011;20084;47.912;19.044;2022-11-20T05:16:12;19.58;;;12.70;;
33760;SDS011;20084;47.912;19.044;2022-11-20T05:18:39;17.50;;;12.45;;
33760;SDS011;20084;47.912;19.044;2022-11-20T05:21:06;17.73;;;11.85;;
33760;SDS011;20084;47.912;19.044;2022-11-20T05:23:32;22.63;;;12.00;;
33760;SDS011;20084;47.912;19.044;2022-11-20T05:25:59;20.25;;;11.85;;
33760;SDS011;20084;47.912;19.044;2022-11-20T05:28:26;19.60;;;11.45;;
33760;SDS011;20084;47.912;19.044;2022-11-20T05:30:53;17.38;;;12.18;;
33760;SDS011;20084;47.912;19.044;2022-11-20T05:33:19;18.95;;;12.45;;
33760;SDS011;20084;47.912;19.044;2022-11-20T05:35:45;20.50;;;12.00;;
33760;SDS011;20084;47.912;19.044;2022-11-20T05:38:10;18.85;;;11.60;;
33760;SDS011;20084;47.912;19.044;2022-11-20T05:40:36;18.65;;;11.13;;
33760;SDS011;20084;47.912;19.044;2022-11-20T05:43:02;19.92;;;13.13;;
33760;SDS011;20084;47.912;19.044;2022-11-20T05:45:27;17.00;;;11.85;;
33760;SDS011;20084;47.912;19.044;2022-11-20T05:47:53;18.00;;;11.68;;
33760;SDS011;20084;47.912;19.044;2022-11-20T05:50:18;18.85;;;12.10;;
33760;SDS011;20084;47.912;19.044;2022-11-20T05:52:44;19.10;;;11.77;;
33760;SDS011;20084;47.912;19.044;2022-11-20T05:55:09;19.48;;;12.73;;
33760;SDS011;20084;47.912;19.044;2022-11-20T05:57:35;18.17;;;12.18;;
33760;SDS011;20084;47.912;19.044;2022-11-20T06:00:01;23.25;;;14.80;;
33760;SDS011;20084;47.912;19.044;2022-11-20T06:02:28;23.75;;;15.52;;
33760;SDS011;20084;47.912;19.044;2022-11-20T06:04:53;21.75;;;15.30;;
33760;SDS011;20084;47.912;19.044;2022-11-20T06:07:19;20.48;;;13.23;;
33760;SDS011;20084;47.912;19.044;2022-11-20T06:09:44;18.38;;;12.15;;
33760;SDS011;20084;47.912;19.044;2022-11-20T06:12:10;17.40;;;12.15;;
33760;SDS011;20084;47.912;19.044;2022-11-20T06:14:35;20.05;;;13.38;;
33760;SDS011;20084;47.912;19.044;2022-11-20T06:17:01;19.77;;;12.80;;
33760;SDS011;20084;47.912;19.044;2022-11-20T06:19:27;21.08;;;12.60;;
33760;SDS011;20084;47.912;19.044;2022-11-20T06:21:52;18.80;;;12.20;;
33760;SDS011;20084;47.912;19.044;2022-11-20T06:24:18;20.45;;;13.20;;
33760;SDS011;20084;47.912;19.044;2022-11-20T06:26:44;19.20;;;12.50;;
33760;SDS011;20084;47.912;19.044;2022-11-20T06:29:09;20.25;;;12.60;;
33760;SDS011;20084;47.912;19.044;2022-11-20T06:31:35;17.48;;;12.23;;
33760;SDS011;20084;47.912;19.044;2022-11-20T06:34:03;17.48;;;12.93;;
33760;SDS011;20084;47.912;19.044;2022-11-20T06:36:30;18.10;;;11.30;;
33760;SDS011;20084;47.912;19.044;2022-11-20T06:38:56;17.45;;;11.00;;
33760;SDS011;20084;47.912;19.044;2022-11-20T06:41:21;16.65;;;10.73;;
33760;SDS011;20084;47.912;19.044;2022-11-20T06:43:47;16.75;;;11.27;;
33760;SDS011;20084;47.912;19.044;2022-11-20T06:46:13;17.38;;;11.63;;
33760;SDS011;20084;47.912;19.044;2022-11-20T06:48:42;15.93;;;11.20;;
33760;SDS011;20084;47.912;19.044;2022-11-20T06:51:08;17.00;;;11.32;;
33760;SDS011;20084;47.912;19.044;2022-11-20T06:53:34;16.30;;;11.25;;
33760;SDS011;20084;47.912;19.044;2022-11-20T06:56:00;19.00;;;11.77;;
33760;SDS011;20084;47.912;19.044;2022-11-20T06:58:27;16.77;;;10.32;;
33760;SDS011;20084;47.912;19.044;2022-11-20T07:00:53;16.65;;;10.55;;
33760;SDS011;20084;47.912;19.044;2022-11-20T07:03:22;14.63;;;10.05;;
33760;SDS011;20084;47.912;19.044;2022-11-20T07:05:48;16.85;;;11.15;;
33760;SDS011;20084;47.912;19.044;2022-11-20T07:08:13;15.88;;;10.73;;
33760;SDS011;20084;47.912;19.044;2022-11-20T07:10:39;19.70;;;11.25;;
33760;SDS011;20084;47.912;19.044;2022-11-20T07:13:04;14.55;;;10.50;;
33760;SDS011;20084;47.912;19.044;2022-11-20T07:15:31;18.00;;;11.50;;
33760;SDS011;20084;47.912;19.044;2022-11-20T07:18:00;15.32;;;9.80;;
33760;SDS011;20084;47.912;19.044;2022-11-20T07:20:26;16.67;;;10.50;;
33760;SDS011;20084;47.912;19.044;2022-11-20T07:22:53;16.05;;;11.00;;
33760;SDS011;20084;47.912;19.044;2022-11-20T07:25:22;15.73;;;10.10;;
33760;SDS011;20084;47.912;19.044;2022-11-20T07:27:49;17.45;;;11.23;;
33760;SDS011;20084;47.912;19.044;2022-11-20T07:30:15;14.75;;;10.38;;
33760;SDS011;20084;47.912;19.044;2022-11-20T07:32:41;17.65;;;11.20;;
33760;SDS011;20084;47.912;19.044;2022-11-20T07:35:06;17.65;;;10.77;;
33760;SDS011;20084;47.912;19.044;2022-11-20T07:37:35;17.77;;;11.73;;
33760;SDS011;20084;47.912;19.044;2022-11-20T07:40:01;20.00;;;11.68;;
33760;SDS011;20084;47.912;19.044;2022-11-20T07:42:27;19.10;;;11.10;;
33760;SDS011;20084;47.912;19.044;2022-11-20T07:44:53;15.98;;;10.30;;
33760;SDS011;20084;47.912;19.044;2022-11-20T07:47:18;20.75;;;11.73;;
33760;SDS011;20084;47.912;19.044;2022-11-20T07:49:44;16.98;;;11.23;;
33760;SDS011;20084;47.912;19.044;2022-11-20T07:52:09;14.45;;;9.98;;
33760;SDS011;20084;47.912;19.044;2022-11-20T07:54:35;14.73;;;9.80;;
33760;SDS011;20084;47.912;19.044;2022-11-20T07:57:01;18.42;;;12.23;;
33760;SDS011;20084;47.912;19.044;2022-11-20T07:59:26;25.27;;;17.08;;
33760;SDS011;20084;47.912;19.044;2022-11-20T08:01:52;21.00;;;14.73;;
33760;SDS011;20084;47.912;19.044;2022-11-20T08:04:17;17.50;;;10.68;;
33760;SDS011;20084;47.912;19.044;2022-11-20T08:06:43;14.77;;;10.20;;
33760;SDS011;20084;47.912;19.044;2022-11-20T08:09:08;16.30;;;11.05;;
33760;SDS011;20084;47.912;19.044;2022-11-20T08:11:34;15.90;;;10.93;;
33760;SDS011;20084;47.912;19.044;2022-11-20T08:14:18;15.65;;;10.82;;
33760;SDS011;20084;47.912;19.044;2022-11-20T08:16:47;17.45;;;12.32;;
33760;SDS011;20084;47.912;19.044;2022-11-20T08:19:14;16.98;;;11.63;;
33760;SDS011;20084;47.912;19.044;2022-11-20T08:21:41;16.85;;;9.98;;
33760;SDS011;20084;47.912;19.044;2022-11-20T08:24:10;15.00;;;10.60;;
33760;SDS011;20084;47.912;19.044;2022-11-20T08:26:37;18.45;;;12.13;;
33760;SDS011;20084;47.912;19.044;2022-11-20T08:29:03;18.80;;;13.55;;
33760;SDS011;20084;47.912;19.044;2022-11-20T08:31:30;20.23;;;13.25;;
33760;SDS011;20084;47.912;19.044;2022-11-20T08:33:56;22.27;;;15.05;;
33760;SDS011;20084;47.912;19.044;2022-11-20T08:36:22;22.70;;;14.82;;
33760;SDS011;20084;47.912;19.044;2022-11-20T08:38:49;21.02;;;13.75;;
33760;SDS011;20084;47.912;19.044;2022-11-20T08:41:17;18.20;;;12.27;;
33760;SDS011;20084;47.912;19.044;2022-11-20T08:43:49;17.65;;;12.10;;
33760;SDS011;20084;47.912;19.044;2022-11-20T08:46:15;23.83;;;16.40;;
33760;SDS011;20084;47.912;19.044;2022-11-20T08:48:41;16.52;;;11.68;;
33760;SDS011;20084;47.912;19.044;2022-11-20T08:51:07;18.45;;;12.20;;
33760;SDS011;20084;47.912;19.044;2022-11-20T08:53:33;20.35;;;12.75;;
33760;SDS011;20084;47.912;19.044;2022-11-20T08:55:58;17.45;;;11.65;;
33760;SDS011;20084;47.912;19.044;2022-11-20T08:58:25;15.82;;;11.25;;
33760;SDS011;20084;47.912;19.044;2022-11-20T09:00:51;16.92;;;12.20;;
33760;SDS011;20084;47.912;19.044;2022-11-20T09:03:16;17.00;;;11.57;;
33760;SDS011;20084;47.912;19.044;2022-11-20T09:05:42;15.30;;;11.00;;
33760;SDS011;20084;47.912;19.044;2022-11-20T09:08:08;15.80;;;10.95;;
33760;SDS011;20084;47.912;19.044;2022-11-20T09:10:33;16.77;;;12.43;;
33760;SDS011;20084;47.912;19.044;2022-11-20T09:12:59;14.68;;;10.13;;
33760;SDS011;20084;47.912;19.044;2022-11-20T09:15:25;15.95;;;10.00;;
33760;SDS011;20084;47.912;19.044;2022-11-20T09:17:54;15.07;;;10.18;;
33760;SDS011;20084;47.912;19.044;2022-11-20T09:20:21;15.27;;;10.57;;
33760;SDS011;20084;47.912;19.044;2022-11-20T09:22:47;14.30;;;9.45;;
33760;SDS011;20084;47.912;19.044;2022-11-20T09:25:13;13.13;;;9.48;;
33760;SDS011;20084;47.912;19.044;2022-11-20T09:27:39;13.57;;;9.73;;
33760;SDS011;20084;47.912;19.044;2022-11-20T09:30:06;14.27;;;9.90;;
33760;SDS011;20084;47.912;19.044;2022-11-20T09:32:32;13.07;;;9.77;;
33760;SDS011;20084;47.912;19.044;2022-11-20T09:34:58;13.10;;;10.02;;
33760;SDS011;20084;47.912;19.044;2022-11-20T09:37:23;14.38;;;9.95;;
33760;SDS011;20084;47.912;19.044;2022-11-20T09:39:49;11.75;;;8.25;;
33760;SDS011;20084;47.912;19.044;2022-11-20T09:45:04;24.02;;;15.93;;
33760;SDS011;20084;47.912;19.044;2022-11-20T09:50:43;22.35;;;16.13;;
33760;SDS011;20084;47.912;19.044;2022-11-20T09:53:22;23.42;;;16.15;;
33760;SDS011;20084;47.912;19.044;2022-11-20T09:55:50;23.25;;;15.85;;
33760;SDS011;20084;47.912;19.044;2022-11-20T09:58:24;23.38;;;16.17;;
33760;SDS011;20084;47.912;19.044;2022-11-20T10:00:59;19.73;;;13.73;;
33760;SDS011;20084;47.912;19.044;2022-11-20T10:03:39;20.05;;;12.63;;
33760;SDS011;20084;47.912;19.044;2022-11-20T10:06:21;16.90;;;12.13;;
33760;SDS011;20084;47.912;19.044;2022-11-20T10:17:42;15.93;;;10.88;;
33760;SDS011;20084;47.912;19.044;2022-11-20T10:25:54;17.98;;;12.75;;
33760;SDS011;20084;47.912;19.044;2022-11-20T10:31:31;13.98;;;9.90;;
33760;SDS011;20084;47.912;19.044;2022-11-20T10:34:01;12.75;;;9.15;;
33760;SDS011;20084;47.912;19.044;2022-11-20T10:36:38;13.25;;;9.07;;
33760;SDS011;20084;47.912;19.044;2022-11-20T10:39:20;15.35;;;10.52;;
33760;SDS011;20084;47.912;19.044;2022-11-20T10:41:52;17.08;;;12.45;;
33760;SDS011;20084;47.912;19.044;2022-11-20T10:44:24;16.05;;;10.68;;
33760;SDS011;20084;47.912;19.044;2022-11-20T10:49:38;14.05;;;10.60;;
33760;SDS011;20084;47.912;19.044;2022-11-20T10:58:30;14.18;;;9.73;;
33760;SDS011;20084;47.912;19.044;2022-11-20T11:01:17;14.77;;;9.63;;
33760;SDS011;20084;47.912;19.044;2022-11-20T11:03:47;15.02;;;10.07;;
33760;SDS011;20084;47.912;19.044;2022-11-20T11:09:19;17.38;;;12.00;;
33760;SDS011;20084;47.912;19.044;2022-11-20T11:11:53;17.15;;;12.57;;
33760;SDS011;20084;47.912;19.044;2022-11-20T11:14:18;14.27;;;11.25;;
33760;SDS011;20084;47.912;19.044;2022-11-20T11:16:57;15.10;;;11.18;;
33760;SDS011;20084;47.912;19.044;2022-11-20T11:19:23;15.73;;;10.85;;
33760;SDS011;20084;47.912;19.044;2022-11-20T11:21:50;15.45;;;11.00;;
33760;SDS011;20084;47.912;19.044;2022-11-20T11:24:25;15.90;;;11.02;;
33760;SDS011;20084;47.912;19.044;2022-11-20T11:26:56;14.05;;;9.82;;
33760;SDS011;20084;47.912;19.044;2022-11-20T11:29:29;14.63;;;9.88;;
33760;SDS011;20084;47.912;19.044;2022-11-20T11:32:10;19.02;;;12.18;;
33760;SDS011;20084;47.912;19.044;2022-11-20T11:34:38;11.80;;;9.20;;
33760;SDS011;20084;47.912;19.044;2022-11-20T11:37:04;11.90;;;9.13;;
33760;SDS011;20084;47.912;19.044;2022-11-20T11:39:36;11.48;;;8.68;;
33760;SDS011;20084;47.912;19.044;2022-11-20T11:42:07;12.13;;;8.98;;
33760;SDS011;20084;47.912;19.044;2022-11-20T11:44:46;13.90;;;9.98;;
33760;SDS011;20084;47.912;19.044;2022-11-20T11:58:14;13.25;;;9.60;;
33760;SDS011;20084;47.912;19.044;2022-11-20T12:00:54;12.65;;;9.20;;
33760;SDS011;20084;47.912;19.044;2022-11-20T12:03:34;13.15;;;9.93;;
33760;SDS011;20084;47.912;19.044;2022-11-20T12:06:24;14.98;;;10.02;;
33760;SDS011;20084;47.912;19.044;2022-11-20T12:08:57;12.57;;;9.27;;
33760;SDS011;20084;47.912;19.044;2022-11-20T12:16:52;11.98;;;9.18;;
33760;SDS011;20084;47.912;19.044;2022-11-20T12:19:20;12.35;;;9.10;;
33760;SDS011;20084;47.912;19.044;2022-11-20T12:30:02;11.32;;;8.75;;
33760;SDS011;20084;47.912;19.044;2022-11-20T12:47:58;12.23;;;9.30;;
33760;SDS011;20084;47.912;19.044;2022-11-20T12:58:49;12.35;;;8.77;;
33760;SDS011;20084;47.912;19.044;2022-11-20T13:01:20;10.57;;;8.85;;
33760;SDS011;20084;47.912;19.044;2022-11-20T13:04:43;11.45;;;8.77;;
33760;SDS011;20084;47.912;19.044;2022-11-20T13:07:04;12.98;;;9.77;;
33760;SDS011;20084;47.912;19.044;2022-11-20T13:09:32;16.05;;;12.23;;
33760;SDS011;20084;47.912;19.044;2022-11-20T13:12:16;23.58;;;17.17;;
33760;SDS011;20084;47.912;19.044;2022-11-20T13:17:57;10.00;;;8.27;;
33760;SDS011;20084;47.912;19.044;2022-11-20T13:20:25;9.88;;;8.05;;
33760;SDS011;20084;47.912;19.044;2022-11-20T13:22:52;11.88;;;9.52;;
33760;SDS011;20084;47.912;19.044;2022-11-20T13:27:49;13.27;;;9.32;;
33760;SDS011;20084;47.912;19.044;2022-11-20T13:35:56;13.18;;;9.70;;
33760;SDS011;20084;47.912;19.044;2022-11-20T13:38:27;13.27;;;9.05;;
33760;SDS011;20084;47.912;19.044;2022-11-20T13:40:57;19.58;;;12.88;;
33760;SDS011;20084;47.912;19.044;2022-11-20T13:43:44;14.27;;;10.73;;
33760;SDS011;20084;47.912;19.044;2022-11-20T13:46:12;17.48;;;11.13;;
33760;SDS011;20084;47.912;19.044;2022-11-20T13:48:41;19.58;;;12.15;;
33760;SDS011;20084;47.912;19.044;2022-11-20T13:56:40;14.77;;;11.38;;
33760;SDS011;20084;47.912;19.044;2022-11-20T14:02:29;20.80;;;13.95;;
33760;SDS011;20084;47.912;19.044;2022-11-20T14:04:56;16.60;;;12.88;;
33760;SDS011;20084;47.912;19.044;2022-11-20T14:07:26;34.13;;;25.08;;
33760;SDS011;20084;47.912;19.044;2022-11-20T14:10:00;19.77;;;14.07;;
33760;SDS011;20084;47.912;19.044;2022-11-20T14:12:32;34.88;;;26.02;;
33760;SDS011;20084;47.912;19.044;2022-11-20T14:14:59;28.38;;;19.73;;
33760;SDS011;20084;47.912;19.044;2022-11-20T14:19:58;20.70;;;15.13;;
33760;SDS011;20084;47.912;19.044;2022-11-20T14:22:30;18.10;;;13.07;;
33760;SDS011;20084;47.912;19.044;2022-11-20T14:25:06;19.45;;;14.15;;
33760;SDS011;20084;47.912;19.044;2022-11-20T14:27:42;23.75;;;17.15;;
33760;SDS011;20084;47.912;19.044;2022-11-20T14:30:13;26.93;;;20.03;;
33760;SDS011;20084;47.912;19.044;2022-11-20T14:35:24;26.35;;;17.83;;
33760;SDS011;20084;47.912;19.044;2022-11-20T14:37:50;21.95;;;14.73;;
33760;SDS011;20084;47.912;19.044;2022-11-20T14:42:56;19.30;;;14.30;;
33760;SDS011;20084;47.912;19.044;2022-11-20T14:45:23;16.52;;;11.73;;
33760;SDS011;20084;47.912;19.044;2022-11-20T14:47:51;18.38;;;12.27;;
33760;SDS011;20084;47.912;19.044;2022-11-20T14:50:27;23.77;;;15.32;;
33760;SDS011;20084;47.912;19.044;2022-11-20T14:52:54;19.77;;;14.07;;
33760;SDS011;20084;47.912;19.044;2022-11-20T14:55:26;23.00;;;15.35;;
33760;SDS011;20084;47.912;19.044;2022-11-20T14:57:56;29.70;;;19.30;;
33760;SDS011;20084;47.912;19.044;2022-11-20T15:00:23;27.40;;;18.00;;
33760;SDS011;20084;47.912;19.044;2022-11-20T15:02:50;28.27;;;20.27;;
33760;SDS011;20084;47.912;19.044;2022-11-20T15:05:17;28.40;;;18.98;;
33760;SDS011;20084;47.912;19.044;2022-11-20T15:07:49;32.03;;;21.98;;
33760;SDS011;20084;47.912;19.044;2022-11-20T15:10:24;28.92;;;20.42;;
33760;SDS011;20084;47.912;19.044;2022-11-20T15:12:55;33.65;;;21.25;;
33760;SDS011;20084;47.912;19.044;2022-11-20T15:15:28;27.00;;;19.85;;
33760;SDS011;20084;47.912;19.044;2022-11-20T15:17:55;29.30;;;20.58;;
33760;SDS011;20084;47.912;19.044;2022-11-20T15:20:21;28.15;;;21.60;;
33760;SDS011;20084;47.912;19.044;2022-11-20T15:22:51;28.45;;;20.17;;
33760;SDS011;20084;47.912;19.044;2022-11-20T15:25:17;15.02;;;10.48;;
33760;SDS011;20084;47.912;19.044;2022-11-20T15:27:44;14.23;;;9.88;;
33760;SDS011;20084;47.912;19.044;2022-11-20T15:32:40;16.05;;;11.48;;
33760;SDS011;20084;47.912;19.044;2022-11-20T15:35:07;22.65;;;12.40;;
33760;SDS011;20084;47.912;19.044;2022-11-20T15:37:33;15.50;;;12.02;;
33760;SDS011;20084;47.912;19.044;2022-11-20T15:39:58;18.48;;;12.68;;
33760;SDS011;20084;47.912;19.044;2022-11-20T15:42:24;15.38;;;9.95;;
33760;SDS011;20084;47.912;19.044;2022-11-20T15:44:50;19.55;;;13.32;;
33760;SDS011;20084;47.912;19.044;2022-11-20T15:47:15;25.17;;;16.52;;
33760;SDS011;20084;47.912;19.044;2022-11-20T15:49:42;34.75;;;21.60;;
33760;SDS011;20084;47.912;19.044;2022-11-20T15:52:09;33.55;;;23.38;;
33760;SDS011;20084;47.912;19.044;2022-11-20T15:54:35;46.28;;;30.48;;
33760;SDS011;20084;47.912;19.044;2022-11-20T15:57:01;37.15;;;24.60;;
33760;SDS011;20084;47.912;19.044;2022-11-20T15:59:27;22.40;;;15.20;;
33760;SDS011;20084;47.912;19.044;2022-11-20T16:01:53;14.80;;;10.02;;
33760;SDS011;20084;47.912;19.044;2022-11-20T16:04:18;12.98;;;9.68;;
33760;SDS011;20084;47.912;19.044;2022-11-20T16:06:44;11.93;;;8.60;;
33760;SDS011;20084;47.912;19.044;2022-11-20T16:09:10;15.98;;;10.10;;
33760;SDS011;20084;47.912;19.044;2022-11-20T16:11:35;13.27;;;10.05;;
33760;SDS011;20084;47.912;19.044;2022-11-20T16:14:02;16.27;;;11.25;;
33760;SDS011;20084;47.912;19.044;2022-11-20T16:16:48;16.45;;;11.75;;
33760;SDS011;20084;47.912;19.044;2022-11-20T16:19:14;31.02;;;18.15;;